sensor_id;sensor_type;location;lat;lon;timestamp;P1;durP1;ratioP1;P2;durP2;ratioP2
21430;SDS011;10876;49.038;10.608;2023-08-06T00:01:02;3.10;;;2.28;;
21430;SDS011;10876;49.038;10.608;2023-08-06T00:04:29;2.47;;;2.25;;
21430;SDS011;10876;49.038;10.608;2023-08-06T00:07:54;2.70;;;2.00;;
21430;SDS011;10876;49.038;10.608;2023-08-06T00:11:20;3.78;;;1.90;;
21430;SDS011;10876;49.038;10.608;2023-08-06T00:14:45;2.47;;;1.75;;
21430;SDS011;10876;49.038;10.608;2023-08-06T00:18:10;2.47;;;1.80;;
21430;SDS011;10876;49.038;10.608;2023-08-06T00:21:37;2.65;;;1.92;;
21430;SDS011;10876;49.038;10.608;2023-08-06T00:25:04;2.45;;;1.83;;
21430;SDS011;10876;49.038;10.608;2023-08-06T00:28:29;3.78;;;1.95;;
21430;SDS011;10876;49.038;10.608;2023-08-06T00:31:54;3.90;;;2.47;;
21430;SDS011;10876;49.038;10.608;2023-08-06T00:35:20;2.38;;;1.83;;
21430;SDS011;10876;49.038;10.608;2023-08-06T00:38:47;2.78;;;1.80;;
21430;SDS011;10876;49.038;10.608;2023-08-06T00:42:12;2.25;;;1.77;;
21430;SDS011;10876;49.038;10.608;2023-08-06T00:45:37;2.35;;;1.65;;
21430;SDS011;10876;49.038;10.608;2023-08-06T00:49:03;3.05;;;1.75;;
21430;SDS011;10876;49.038;10.608;2023-08-06T00:52:28;3.05;;;1.90;;
21430;SDS011;10876;49.038;10.608;2023-08-06T00:55:55;2.42;;;1.60;;
21430;SDS011;10876;49.038;10.608;2023-08-06T00:59:22;3.30;;;1.90;;
21430;SDS011;10876;49.038;10.608;2023-08-06T01:02:48;2.92;;;1.55;;
21430;SDS011;10876;49.038;10.608;2023-08-06T01:06:14;3.75;;;1.98;;
21430;SDS011;10876;49.038;10.608;2023-08-06T01:09:47;1.73;;;1.35;;
21430;SDS011;10876;49.038;10.608;2023-08-06T01:13:27;2.42;;;1.80;;
21430;SDS011;10876;49.038;10.608;2023-08-06T01:16:56;4.35;;;1.58;;
21430;SDS011;10876;49.038;10.608;2023-08-06T01:20:28;2.10;;;1.73;;
21430;SDS011;10876;49.038;10.608;2023-08-06T01:23:53;2.22;;;1.70;;
21430;SDS011;10876;49.038;10.608;2023-08-06T01:27:21;2.00;;;1.77;;
21430;SDS011;10876;49.038;10.608;2023-08-06T01:30:49;2.78;;;1.70;;
21430;SDS011;10876;49.038;10.608;2023-08-06T01:34:17;2.20;;;1.65;;
21430;SDS011;10876;49.038;10.608;2023-08-06T01:37:47;4.47;;;1.88;;
21430;SDS011;10876;49.038;10.608;2023-08-06T01:41:12;2.45;;;1.77;;
21430;SDS011;10876;49.038;10.608;2023-08-06T01:44:38;2.78;;;1.77;;
21430;SDS011;10876;49.038;10.608;2023-08-06T01:48:03;2.40;;;1.85;;
21430;SDS011;10876;49.038;10.608;2023-08-06T01:51:28;2.58;;;1.75;;
21430;SDS011;10876;49.038;10.608;2023-08-06T01:54:55;2.10;;;1.70;;
21430;SDS011;10876;49.038;10.608;2023-08-06T01:58:21;2.58;;;1.73;;
21430;SDS011;10876;49.038;10.608;2023-08-06T02:01:46;2.53;;;1.95;;
21430;SDS011;10876;49.038;10.608;2023-08-06T02:05:11;4.40;;;1.70;;
21430;SDS011;10876;49.038;10.608;2023-08-06T02:08:36;4.07;;;2.20;;
21430;SDS011;10876;49.038;10.608;2023-08-06T02:12:03;4.78;;;2.33;;
21430;SDS011;10876;49.038;10.608;2023-08-06T02:15:28;3.35;;;2.28;;
21430;SDS011;10876;49.038;10.608;2023-08-06T02:18:54;2.92;;;2.25;;
21430;SDS011;10876;49.038;10.608;2023-08-06T02:22:19;3.70;;;2.58;;
21430;SDS011;10876;49.038;10.608;2023-08-06T02:25:44;3.85;;;2.80;;
21430;SDS011;10876;49.038;10.608;2023-08-06T02:29:10;5.25;;;2.53;;
21430;SDS011;10876;49.038;10.608;2023-08-06T02:32:36;3.78;;;2.63;;
21430;SDS011;10876;49.038;10.608;2023-08-06T02:36:01;5.07;;;2.38;;
21430;SDS011;10876;49.038;10.608;2023-08-06T02:39:45;3.40;;;2.50;;
21430;SDS011;10876;49.038;10.608;2023-08-06T02:43:31;2.53;;;2.15;;
21430;SDS011;10876;49.038;10.608;2023-08-06T02:47:19;4.18;;;2.63;;
21430;SDS011;10876;49.038;10.608;2023-08-06T02:51:04;3.50;;;2.53;;
21430;SDS011;10876;49.038;10.608;2023-08-06T02:54:50;3.53;;;2.80;;
21430;SDS011;10876;49.038;10.608;2023-08-06T02:58:36;3.92;;;2.60;;
21430;SDS011;10876;49.038;10.608;2023-08-06T03:02:22;3.33;;;2.45;;
21430;SDS011;10876;49.038;10.608;2023-08-06T03:06:08;3.63;;;2.58;;
21430;SDS011;10876;49.038;10.608;2023-08-06T03:09:53;5.20;;;2.30;;
21430;SDS011;10876;49.038;10.608;2023-08-06T03:13:39;4.57;;;2.83;;
21430;SDS011;10876;49.038;10.608;2023-08-06T03:17:26;5.95;;;3.10;;
21430;SDS011;10876;49.038;10.608;2023-08-06T03:21:12;4.05;;;2.75;;
21430;SDS011;10876;49.038;10.608;2023-08-06T03:24:37;4.03;;;3.08;;
21430;SDS011;10876;49.038;10.608;2023-08-06T03:28:02;5.10;;;3.50;;
21430;SDS011;10876;49.038;10.608;2023-08-06T03:31:29;3.97;;;3.00;;
21430;SDS011;10876;49.038;10.608;2023-08-06T03:34:54;7.00;;;3.67;;
21430;SDS011;10876;49.038;10.608;2023-08-06T03:38:22;4.68;;;3.65;;
21430;SDS011;10876;49.038;10.608;2023-08-06T03:42:04;6.15;;;3.83;;
21430;SDS011;10876;49.038;10.608;2023-08-06T03:45:29;6.72;;;3.35;;
21430;SDS011;10876;49.038;10.608;2023-08-06T03:48:58;4.50;;;3.25;;
21430;SDS011;10876;49.038;10.608;2023-08-06T03:52:24;7.40;;;3.40;;
21430;SDS011;10876;49.038;10.608;2023-08-06T03:55:49;5.93;;;4.03;;
21430;SDS011;10876;49.038;10.608;2023-08-06T03:59:16;7.28;;;3.53;;
21430;SDS011;10876;49.038;10.608;2023-08-06T04:02:43;5.25;;;3.42;;
21430;SDS011;10876;49.038;10.608;2023-08-06T04:06:09;6.40;;;3.75;;
21430;SDS011;10876;49.038;10.608;2023-08-06T04:09:35;5.28;;;3.25;;
21430;SDS011;10876;49.038;10.608;2023-08-06T04:13:18;7.53;;;3.83;;
21430;SDS011;10876;49.038;10.608;2023-08-06T04:16:44;7.57;;;4.07;;
21430;SDS011;10876;49.038;10.608;2023-08-06T04:20:10;7.93;;;4.10;;
21430;SDS011;10876;49.038;10.608;2023-08-06T04:23:35;10.70;;;3.58;;
21430;SDS011;10876;49.038;10.608;2023-08-06T04:27:00;4.90;;;2.97;;
21430;SDS011;10876;49.038;10.608;2023-08-06T04:30:26;5.20;;;3.35;;
21430;SDS011;10876;49.038;10.608;2023-08-06T04:33:52;4.60;;;3.25;;
21430;SDS011;10876;49.038;10.608;2023-08-06T04:37:17;5.78;;;3.67;;
21430;SDS011;10876;49.038;10.608;2023-08-06T04:40:43;8.35;;;3.75;;
21430;SDS011;10876;49.038;10.608;2023-08-06T04:44:08;5.35;;;3.53;;
21430;SDS011;10876;49.038;10.608;2023-08-06T04:47:33;5.25;;;3.70;;
21430;SDS011;10876;49.038;10.608;2023-08-06T04:51:00;6.60;;;4.25;;
21430;SDS011;10876;49.038;10.608;2023-08-06T04:54:25;5.10;;;3.25;;
21430;SDS011;10876;49.038;10.608;2023-08-06T04:57:50;5.78;;;3.92;;
21430;SDS011;10876;49.038;10.608;2023-08-06T05:01:16;6.07;;;3.90;;
21430;SDS011;10876;49.038;10.608;2023-08-06T05:04:41;5.07;;;3.15;;
21430;SDS011;10876;49.038;10.608;2023-08-06T05:08:13;4.05;;;2.97;;
21430;SDS011;10876;49.038;10.608;2023-08-06T05:11:38;4.47;;;3.22;;
21430;SDS011;10876;49.038;10.608;2023-08-06T05:15:04;4.75;;;3.58;;
21430;SDS011;10876;49.038;10.608;2023-08-06T05:18:30;4.53;;;3.13;;
21430;SDS011;10876;49.038;10.608;2023-08-06T05:21:55;4.38;;;3.03;;
21430;SDS011;10876;49.038;10.608;2023-08-06T05:25:21;4.10;;;2.95;;
21430;SDS011;10876;49.038;10.608;2023-08-06T05:28:46;4.28;;;3.20;;
21430;SDS011;10876;49.038;10.608;2023-08-06T05:32:12;4.63;;;2.85;;
21430;SDS011;10876;49.038;10.608;2023-08-06T05:34:38;5.07;;;3.17;;
21430;SDS011;10876;49.038;10.608;2023-08-06T05:54:33;6.18;;;2.70;;
21430;SDS011;10876;49.038;10.608;2023-08-06T05:57:52;3.80;;;2.60;;
21430;SDS011;10876;49.038;10.608;2023-08-06T06:00:25;5.05;;;2.67;;
21430;SDS011;10876;49.038;10.608;2023-08-06T06:03:04;4.15;;;2.72;;
21430;SDS011;10876;49.038;10.608;2023-08-06T06:05:37;3.80;;;2.33;;
21430;SDS011;10876;49.038;10.608;2023-08-06T06:08:06;3.60;;;2.38;;
21430;SDS011;10876;49.038;10.608;2023-08-06T06:10:36;4.55;;;2.60;;
21430;SDS011;10876;49.038;10.608;2023-08-06T06:13:05;4.00;;;2.97;;
21430;SDS011;10876;49.038;10.608;2023-08-06T06:15:33;4.28;;;2.33;;
21430;SDS011;10876;49.038;10.608;2023-08-06T06:18:03;4.75;;;2.90;;
21430;SDS011;10876;49.038;10.608;2023-08-06T06:20:31;3.65;;;2.70;;
21430;SDS011;10876;49.038;10.608;2023-08-06T06:22:59;4.90;;;2.90;;
21430;SDS011;10876;49.038;10.608;2023-08-06T06:25:26;4.05;;;2.47;;
21430;SDS011;10876;49.038;10.608;2023-08-06T06:27:56;6.60;;;2.65;;
21430;SDS011;10876;49.038;10.608;2023-08-06T06:30:24;3.50;;;2.60;;
21430;SDS011;10876;49.038;10.608;2023-08-06T06:32:53;3.35;;;2.47;;
21430;SDS011;10876;49.038;10.608;2023-08-06T06:35:21;5.05;;;2.65;;
21430;SDS011;10876;49.038;10.608;2023-08-06T06:37:48;5.35;;;2.47;;
21430;SDS011;10876;49.038;10.608;2023-08-06T06:43:58;2.72;;;2.00;;
21430;SDS011;10876;49.038;10.608;2023-08-06T06:46:25;3.63;;;1.92;;
21430;SDS011;10876;49.038;10.608;2023-08-06T06:49:00;2.85;;;1.30;;
21430;SDS011;10876;49.038;10.608;2023-08-06T06:55:21;2.75;;;1.52;;
21430;SDS011;10876;49.038;10.608;2023-08-06T06:57:50;1.40;;;1.05;;
21430;SDS011;10876;49.038;10.608;2023-08-06T07:03:23;1.60;;;0.82;;
21430;SDS011;10876;49.038;10.608;2023-08-06T07:05:50;1.77;;;0.70;;
21430;SDS011;10876;49.038;10.608;2023-08-06T07:08:17;1.00;;;0.90;;
21430;SDS011;10876;49.038;10.608;2023-08-06T07:10:48;1.02;;;0.82;;
21430;SDS011;10876;49.038;10.608;2023-08-06T07:13:18;2.97;;;0.77;;
21430;SDS011;10876;49.038;10.608;2023-08-06T07:19:19;1.73;;;0.77;;
21430;SDS011;10876;49.038;10.608;2023-08-06T07:21:47;1.45;;;0.82;;
21430;SDS011;10876;49.038;10.608;2023-08-06T07:24:15;0.63;;;0.63;;
21430;SDS011;10876;49.038;10.608;2023-08-06T07:26:44;2.97;;;0.85;;
21430;SDS011;10876;49.038;10.608;2023-08-06T07:29:15;1.60;;;0.90;;
21430;SDS011;10876;49.038;10.608;2023-08-06T07:34:43;1.80;;;0.70;;
21430;SDS011;10876;49.038;10.608;2023-08-06T07:37:20;1.65;;;0.93;;
21430;SDS011;10876;49.038;10.608;2023-08-06T07:39:48;0.93;;;0.80;;
21430;SDS011;10876;49.038;10.608;2023-08-06T07:45:05;1.27;;;0.95;;
21430;SDS011;10876;49.038;10.608;2023-08-06T07:47:52;2.03;;;0.90;;
21430;SDS011;10876;49.038;10.608;2023-08-06T07:50:34;1.00;;;0.70;;
21430;SDS011;10876;49.038;10.608;2023-08-06T07:55:47;2.28;;;0.80;;
21430;SDS011;10876;49.038;10.608;2023-08-06T07:58:17;1.30;;;0.82;;
21430;SDS011;10876;49.038;10.608;2023-08-06T08:00:44;2.17;;;1.00;;
21430;SDS011;10876;49.038;10.608;2023-08-06T08:03:12;2.30;;;0.90;;
21430;SDS011;10876;49.038;10.608;2023-08-06T08:05:42;1.55;;;1.00;;
21430;SDS011;10876;49.038;10.608;2023-08-06T08:14:04;1.20;;;0.60;;
21430;SDS011;10876;49.038;10.608;2023-08-06T08:16:50;0.85;;;0.63;;
21430;SDS011;10876;49.038;10.608;2023-08-06T08:19:17;1.73;;;0.90;;
21430;SDS011;10876;49.038;10.608;2023-08-06T08:21:46;1.20;;;0.80;;
21430;SDS011;10876;49.038;10.608;2023-08-06T08:24:13;1.23;;;0.80;;
21430;SDS011;10876;49.038;10.608;2023-08-06T08:26:45;2.15;;;0.68;;
21430;SDS011;10876;49.038;10.608;2023-08-06T08:29:13;0.50;;;0.50;;
21430;SDS011;10876;49.038;10.608;2023-08-06T08:31:41;0.32;;;0.32;;
21430;SDS011;10876;49.038;10.608;2023-08-06T08:34:14;0.50;;;0.50;;
21430;SDS011;10876;49.038;10.608;2023-08-06T08:36:42;0.40;;;0.40;;
21430;SDS011;10876;49.038;10.608;2023-08-06T08:39:12;1.17;;;0.32;;
21430;SDS011;10876;49.038;10.608;2023-08-06T08:41:43;0.73;;;0.45;;
21430;SDS011;10876;49.038;10.608;2023-08-06T08:44:15;0.95;;;0.50;;
21430;SDS011;10876;49.038;10.608;2023-08-06T08:46:50;0.30;;;0.30;;
21430;SDS011;10876;49.038;10.608;2023-08-06T08:49:19;0.40;;;0.40;;
21430;SDS011;10876;49.038;10.608;2023-08-06T08:51:53;0.70;;;0.70;;
21430;SDS011;10876;49.038;10.608;2023-08-06T08:54:26;0.43;;;0.30;;
21430;SDS011;10876;49.038;10.608;2023-08-06T08:57:10;0.45;;;0.45;;
21430;SDS011;10876;49.038;10.608;2023-08-06T08:59:46;0.35;;;0.35;;
21430;SDS011;10876;49.038;10.608;2023-08-06T09:02:16;0.30;;;0.30;;
21430;SDS011;10876;49.038;10.608;2023-08-06T09:04:51;0.22;;;0.22;;
21430;SDS011;10876;49.038;10.608;2023-08-06T09:07:22;0.52;;;0.30;;
21430;SDS011;10876;49.038;10.608;2023-08-06T09:10:02;0.25;;;0.25;;
21430;SDS011;10876;49.038;10.608;2023-08-06T09:12:38;0.60;;;0.40;;
21430;SDS011;10876;49.038;10.608;2023-08-06T09:17:56;0.20;;;0.20;;
21430;SDS011;10876;49.038;10.608;2023-08-06T09:20:25;0.32;;;0.22;;
21430;SDS011;10876;49.038;10.608;2023-08-06T09:23:06;0.43;;;0.28;;
21430;SDS011;10876;49.038;10.608;2023-08-06T09:25:37;0.28;;;0.28;;
21430;SDS011;10876;49.038;10.608;2023-08-06T09:28:18;0.95;;;0.30;;
21430;SDS011;10876;49.038;10.608;2023-08-06T09:30:47;0.30;;;0.20;;
21430;SDS011;10876;49.038;10.608;2023-08-06T09:33:17;0.30;;;0.30;;
21430;SDS011;10876;49.038;10.608;2023-08-06T09:35:45;0.30;;;0.30;;
21430;SDS011;10876;49.038;10.608;2023-08-06T09:38:17;0.10;;;0.10;;
21430;SDS011;10876;49.038;10.608;2023-08-06T09:40:47;0.40;;;0.20;;
21430;SDS011;10876;49.038;10.608;2023-08-06T09:43:15;0.10;;;0.10;;
21430;SDS011;10876;49.038;10.608;2023-08-06T09:45:45;1.00;;;0.30;;
21430;SDS011;10876;49.038;10.608;2023-08-06T09:51:16;0.30;;;0.30;;
21430;SDS011;10876;49.038;10.608;2023-08-06T09:53:51;0.13;;;0.13;;
21430;SDS011;10876;49.038;10.608;2023-08-06T09:56:39;0.20;;;0.20;;
21430;SDS011;10876;49.038;10.608;2023-08-06T10:02:24;0.40;;;0.30;;
21430;SDS011;10876;49.038;10.608;2023-08-06T10:05:01;0.20;;;0.20;;
21430;SDS011;10876;49.038;10.608;2023-08-06T10:08:01;0.20;;;0.20;;
21430;SDS011;10876;49.038;10.608;2023-08-06T10:11:15;0.20;;;0.20;;
21430;SDS011;10876;49.038;10.608;2023-08-06T10:14:27;0.20;;;0.20;;
21430;SDS011;10876;49.038;10.608;2023-08-06T10:17:29;0.20;;;0.20;;
21430;SDS011;10876;49.038;10.608;2023-08-06T10:20:58;0.20;;;0.20;;
21430;SDS011;10876;49.038;10.608;2023-08-06T10:24:48;0.25;;;0.25;;
21430;SDS011;10876;49.038;10.608;2023-08-06T10:28:22;0.60;;;0.30;;
21430;SDS011;10876;49.038;10.608;2023-08-06T10:32:04;1.45;;;0.30;;
21430;SDS011;10876;49.038;10.608;2023-08-06T10:35:33;0.30;;;0.30;;
21430;SDS011;10876;49.038;10.608;2023-08-06T10:39:04;0.20;;;0.20;;
21430;SDS011;10876;49.038;10.608;2023-08-06T10:42:35;0.25;;;0.20;;
21430;SDS011;10876;49.038;10.608;2023-08-06T10:46:10;0.52;;;0.40;;
21430;SDS011;10876;49.038;10.608;2023-08-06T10:49:58;0.38;;;0.35;;
21430;SDS011;10876;49.038;10.608;2023-08-06T10:53:29;1.10;;;0.20;;
21430;SDS011;10876;49.038;10.608;2023-08-06T10:57:12;0.50;;;0.20;;
21430;SDS011;10876;49.038;10.608;2023-08-06T10:59:57;0.93;;;0.20;;
21430;SDS011;10876;49.038;10.608;2023-08-06T11:02:39;0.22;;;0.20;;
21430;SDS011;10876;49.038;10.608;2023-08-06T11:05:10;0.68;;;0.38;;
21430;SDS011;10876;49.038;10.608;2023-08-06T11:07:50;0.65;;;0.20;;
21430;SDS011;10876;49.038;10.608;2023-08-06T11:14:04;0.10;;;0.10;;
21430;SDS011;10876;49.038;10.608;2023-08-06T11:16:48;0.45;;;0.20;;
21430;SDS011;10876;49.038;10.608;2023-08-06T11:19:21;0.15;;;0.15;;
21430;SDS011;10876;49.038;10.608;2023-08-06T11:22:02;0.10;;;0.10;;
21430;SDS011;10876;49.038;10.608;2023-08-06T11:24:55;0.10;;;0.10;;
21430;SDS011;10876;49.038;10.608;2023-08-06T11:27:57;0.20;;;0.20;;
21430;SDS011;10876;49.038;10.608;2023-08-06T11:30:42;0.25;;;0.17;;
21430;SDS011;10876;49.038;10.608;2023-08-06T11:34:00;0.20;;;0.20;;
21430;SDS011;10876;49.038;10.608;2023-08-06T11:37:36;0.30;;;0.30;;
21430;SDS011;10876;49.038;10.608;2023-08-06T11:41:05;0.20;;;0.20;;
21430;SDS011;10876;49.038;10.608;2023-08-06T11:50:25;0.20;;;0.20;;
21430;SDS011;10876;49.038;10.608;2023-08-06T11:53:53;0.10;;;0.10;;
21430;SDS011;10876;49.038;10.608;2023-08-06T11:57:31;0.20;;;0.20;;
21430;SDS011;10876;49.038;10.608;2023-08-06T12:00:57;0.20;;;0.20;;
21430;SDS011;10876;49.038;10.608;2023-08-06T12:04:22;0.28;;;0.20;;
21430;SDS011;10876;49.038;10.608;2023-08-06T12:07:50;0.10;;;0.10;;
21430;SDS011;10876;49.038;10.608;2023-08-06T12:11:16;0.10;;;0.10;;
21430;SDS011;10876;49.038;10.608;2023-08-06T12:14:41;0.10;;;0.10;;
21430;SDS011;10876;49.038;10.608;2023-08-06T12:18:06;0.10;;;0.10;;
21430;SDS011;10876;49.038;10.608;2023-08-06T12:21:32;0.10;;;0.10;;
21430;SDS011;10876;49.038;10.608;2023-08-06T12:25:01;0.20;;;0.20;;
21430;SDS011;10876;49.038;10.608;2023-08-06T12:28:27;0.22;;;0.20;;
21430;SDS011;10876;49.038;10.608;2023-08-06T12:31:53;1.42;;;0.40;;
21430;SDS011;10876;49.038;10.608;2023-08-06T12:35:18;0.10;;;0.10;;
21430;SDS011;10876;49.038;10.608;2023-08-06T12:38:43;0.30;;;0.30;;
21430;SDS011;10876;49.038;10.608;2023-08-06T12:42:10;0.20;;;0.20;;
21430;SDS011;10876;49.038;10.608;2023-08-06T12:45:35;0.30;;;0.22;;
21430;SDS011;10876;49.038;10.608;2023-08-06T12:49:01;1.10;;;0.17;;
21430;SDS011;10876;49.038;10.608;2023-08-06T12:52:26;0.30;;;0.30;;
21430;SDS011;10876;49.038;10.608;2023-08-06T12:55:51;0.30;;;0.30;;
21430;SDS011;10876;49.038;10.608;2023-08-06T12:59:18;0.28;;;0.28;;
21430;SDS011;10876;49.038;10.608;2023-08-06T13:02:43;0.30;;;0.30;;
21430;SDS011;10876;49.038;10.608;2023-08-06T13:06:08;0.50;;;0.50;;
21430;SDS011;10876;49.038;10.608;2023-08-06T13:09:34;0.30;;;0.30;;
21430;SDS011;10876;49.038;10.608;2023-08-06T13:13:00;0.40;;;0.25;;
21430;SDS011;10876;49.038;10.608;2023-08-06T13:16:31;0.45;;;0.17;;
21430;SDS011;10876;49.038;10.608;2023-08-06T13:19:56;0.20;;;0.20;;
21430;SDS011;10876;49.038;10.608;2023-08-06T13:23:21;0.55;;;0.52;;
21430;SDS011;10876;49.038;10.608;2023-08-06T13:26:46;0.20;;;0.20;;
21430;SDS011;10876;49.038;10.608;2023-08-06T13:30:12;0.28;;;0.20;;
21430;SDS011;10876;49.038;10.608;2023-08-06T13:33:39;0.40;;;0.40;;
21430;SDS011;10876;49.038;10.608;2023-08-06T13:37:04;0.47;;;0.47;;
21430;SDS011;10876;49.038;10.608;2023-08-06T13:40:29;0.45;;;0.45;;
21430;SDS011;10876;49.038;10.608;2023-08-06T13:43:55;0.38;;;0.38;;
21430;SDS011;10876;49.038;10.608;2023-08-06T13:47:24;0.43;;;0.35;;
21430;SDS011;10876;49.038;10.608;2023-08-06T13:50:51;0.40;;;0.40;;
21430;SDS011;10876;49.038;10.608;2023-08-06T13:54:16;0.50;;;0.50;;
21430;SDS011;10876;49.038;10.608;2023-08-06T13:57:41;0.47;;;0.47;;
21430;SDS011;10876;49.038;10.608;2023-08-06T14:01:09;0.75;;;0.60;;
21430;SDS011;10876;49.038;10.608;2023-08-06T14:04:34;1.38;;;0.38;;
21430;SDS011;10876;49.038;10.608;2023-08-06T14:08:01;0.75;;;0.60;;
21430;SDS011;10876;49.038;10.608;2023-08-06T14:11:26;0.93;;;0.50;;
21430;SDS011;10876;49.038;10.608;2023-08-06T14:14:51;0.85;;;0.50;;
21430;SDS011;10876;49.038;10.608;2023-08-06T14:18:18;0.70;;;0.68;;
21430;SDS011;10876;49.038;10.608;2023-08-06T14:21:43;1.25;;;0.90;;
21430;SDS011;10876;49.038;10.608;2023-08-06T14:25:09;1.42;;;0.98;;
21430;SDS011;10876;49.038;10.608;2023-08-06T14:28:35;0.77;;;0.75;;
21430;SDS011;10876;49.038;10.608;2023-08-06T14:32:00;0.65;;;0.65;;
21430;SDS011;10876;49.038;10.608;2023-08-06T14:35:26;1.83;;;1.10;;
21430;SDS011;10876;49.038;10.608;2023-08-06T14:38:52;1.02;;;0.93;;
21430;SDS011;10876;49.038;10.608;2023-08-06T14:42:19;1.58;;;1.08;;
21430;SDS011;10876;49.038;10.608;2023-08-06T14:45:44;0.82;;;0.65;;
21430;SDS011;10876;49.038;10.608;2023-08-06T14:49:10;0.80;;;0.70;;
21430;SDS011;10876;49.038;10.608;2023-08-06T14:52:36;0.70;;;0.70;;
21430;SDS011;10876;49.038;10.608;2023-08-06T14:56:01;1.00;;;0.60;;
21430;SDS011;10876;49.038;10.608;2023-08-06T14:59:27;1.35;;;0.80;;
21430;SDS011;10876;49.038;10.608;2023-08-06T15:02:53;1.60;;;0.90;;
21430;SDS011;10876;49.038;10.608;2023-08-06T15:06:18;0.82;;;0.70;;
21430;SDS011;10876;49.038;10.608;2023-08-06T15:09:43;0.57;;;0.57;;
21430;SDS011;10876;49.038;10.608;2023-08-06T15:13:08;1.77;;;0.80;;
21430;SDS011;10876;49.038;10.608;2023-08-06T15:16:35;0.85;;;0.85;;
21430;SDS011;10876;49.038;10.608;2023-08-06T15:20:00;2.08;;;0.77;;
21430;SDS011;10876;49.038;10.608;2023-08-06T15:23:25;0.40;;;0.40;;
21430;SDS011;10876;49.038;10.608;2023-08-06T15:26:51;1.60;;;0.60;;
21430;SDS011;10876;49.038;10.608;2023-08-06T15:30:16;0.30;;;0.30;;
21430;SDS011;10876;49.038;10.608;2023-08-06T15:33:42;0.65;;;0.50;;
21430;SDS011;10876;49.038;10.608;2023-08-06T15:37:08;0.50;;;0.50;;
21430;SDS011;10876;49.038;10.608;2023-08-06T15:40:33;0.45;;;0.45;;
21430;SDS011;10876;49.038;10.608;2023-08-06T15:43:58;0.98;;;0.40;;
21430;SDS011;10876;49.038;10.608;2023-08-06T15:47:23;1.27;;;0.60;;
21430;SDS011;10876;49.038;10.608;2023-08-06T15:50:50;0.60;;;0.40;;
21430;SDS011;10876;49.038;10.608;2023-08-06T15:54:15;2.70;;;0.50;;
21430;SDS011;10876;49.038;10.608;2023-08-06T15:57:40;1.23;;;0.47;;
21430;SDS011;10876;49.038;10.608;2023-08-06T16:04:39;0.50;;;0.50;;
21430;SDS011;10876;49.038;10.608;2023-08-06T16:08:11;0.82;;;0.50;;
21430;SDS011;10876;49.038;10.608;2023-08-06T16:11:39;0.52;;;0.50;;
21430;SDS011;10876;49.038;10.608;2023-08-06T16:15:09;0.85;;;0.40;;
21430;SDS011;10876;49.038;10.608;2023-08-06T16:18:41;0.50;;;0.50;;
21430;SDS011;10876;49.038;10.608;2023-08-06T16:22:10;0.43;;;0.43;;
21430;SDS011;10876;49.038;10.608;2023-08-06T16:25:45;1.20;;;0.60;;
21430;SDS011;10876;49.038;10.608;2023-08-06T16:29:12;1.55;;;0.82;;
21430;SDS011;10876;49.038;10.608;2023-08-06T16:32:39;1.23;;;0.60;;
21430;SDS011;10876;49.038;10.608;2023-08-06T16:36:05;0.77;;;0.50;;
21430;SDS011;10876;49.038;10.608;2023-08-06T16:39:42;0.32;;;0.32;;
21430;SDS011;10876;49.038;10.608;2023-08-06T16:47:26;0.82;;;0.60;;
21430;SDS011;10876;49.038;10.608;2023-08-06T16:50:54;0.60;;;0.60;;
21430;SDS011;10876;49.038;10.608;2023-08-06T16:54:24;0.75;;;0.50;;
21430;SDS011;10876;49.038;10.608;2023-08-06T16:57:59;0.77;;;0.73;;
21430;SDS011;10876;49.038;10.608;2023-08-06T17:01:31;0.80;;;0.60;;
21430;SDS011;10876;49.038;10.608;2023-08-06T17:05:03;0.60;;;0.60;;
21430;SDS011;10876;49.038;10.608;2023-08-06T17:08:31;0.50;;;0.50;;
21430;SDS011;10876;49.038;10.608;2023-08-06T17:12:01;2.20;;;0.80;;
21430;SDS011;10876;49.038;10.608;2023-08-06T17:15:30;0.60;;;0.60;;
21430;SDS011;10876;49.038;10.608;2023-08-06T17:19:01;1.55;;;0.60;;
21430;SDS011;10876;49.038;10.608;2023-08-06T17:22:27;0.40;;;0.40;;
21430;SDS011;10876;49.038;10.608;2023-08-06T17:25:58;1.45;;;0.50;;
21430;SDS011;10876;49.038;10.608;2023-08-06T17:29:32;0.47;;;0.47;;
21430;SDS011;10876;49.038;10.608;2023-08-06T17:33:21;0.50;;;0.50;;
21430;SDS011;10876;49.038;10.608;2023-08-06T17:36:49;0.30;;;0.30;;
21430;SDS011;10876;49.038;10.608;2023-08-06T17:40:20;1.45;;;0.52;;
21430;SDS011;10876;49.038;10.608;2023-08-06T17:43:50;0.60;;;0.43;;
21430;SDS011;10876;49.038;10.608;2023-08-06T17:47:18;0.60;;;0.40;;
21430;SDS011;10876;49.038;10.608;2023-08-06T17:50:52;0.73;;;0.50;;
21430;SDS011;10876;49.038;10.608;2023-08-06T17:54:21;1.20;;;0.63;;
21430;SDS011;10876;49.038;10.608;2023-08-06T17:57:50;0.47;;;0.47;;
21430;SDS011;10876;49.038;10.608;2023-08-06T18:01:21;0.43;;;0.40;;
21430;SDS011;10876;49.038;10.608;2023-08-06T18:04:49;0.75;;;0.38;;
21430;SDS011;10876;49.038;10.608;2023-08-06T18:08:20;1.67;;;0.55;;
21430;SDS011;10876;49.038;10.608;2023-08-06T18:11:50;0.82;;;0.57;;
21430;SDS011;10876;49.038;10.608;2023-08-06T18:15:19;0.40;;;0.35;;
21430;SDS011;10876;49.038;10.608;2023-08-06T18:18:50;0.30;;;0.30;;
21430;SDS011;10876;49.038;10.608;2023-08-06T18:22:17;0.73;;;0.40;;
21430;SDS011;10876;49.038;10.608;2023-08-06T18:25:51;0.68;;;0.40;;
21430;SDS011;10876;49.038;10.608;2023-08-06T18:29:22;0.57;;;0.40;;
21430;SDS011;10876;49.038;10.608;2023-08-06T18:32:51;0.47;;;0.40;;
21430;SDS011;10876;49.038;10.608;2023-08-06T18:36:19;0.47;;;0.47;;
21430;SDS011;10876;49.038;10.608;2023-08-06T18:39:49;0.40;;;0.40;;
21430;SDS011;10876;49.038;10.608;2023-08-06T18:43:18;0.43;;;0.43;;
21430;SDS011;10876;49.038;10.608;2023-08-06T18:46:48;0.77;;;0.52;;
21430;SDS011;10876;49.038;10.608;2023-08-06T18:50:19;0.38;;;0.38;;
21430;SDS011;10876;49.038;10.608;2023-08-06T18:53:48;1.35;;;0.60;;
21430;SDS011;10876;49.038;10.608;2023-08-06T18:57:19;0.47;;;0.47;;
21430;SDS011;10876;49.038;10.608;2023-08-06T19:00:48;0.68;;;0.43;;
21430;SDS011;10876;49.038;10.608;2023-08-06T19:04:23;0.40;;;0.40;;
21430;SDS011;10876;49.038;10.608;2023-08-06T19:07:57;0.32;;;0.30;;
21430;SDS011;10876;49.038;10.608;2023-08-06T19:11:27;1.52;;;0.43;;
21430;SDS011;10876;49.038;10.608;2023-08-06T19:14:57;0.50;;;0.50;;
21430;SDS011;10876;49.038;10.608;2023-08-06T19:18:29;0.70;;;0.40;;
21430;SDS011;10876;49.038;10.608;2023-08-06T19:21:57;0.50;;;0.50;;
21430;SDS011;10876;49.038;10.608;2023-08-06T19:25:28;0.30;;;0.30;;
21430;SDS011;10876;49.038;10.608;2023-08-06T19:29:00;0.57;;;0.50;;
21430;SDS011;10876;49.038;10.608;2023-08-06T19:32:30;0.40;;;0.40;;
21430;SDS011;10876;49.038;10.608;2023-08-06T19:36:03;0.75;;;0.50;;
21430;SDS011;10876;49.038;10.608;2023-08-06T19:39:33;0.50;;;0.47;;
21430;SDS011;10876;49.038;10.608;2023-08-06T19:43:09;0.77;;;0.60;;
21430;SDS011;10876;49.038;10.608;2023-08-06T19:46:38;1.02;;;0.60;;
21430;SDS011;10876;49.038;10.608;2023-08-06T19:50:09;0.68;;;0.40;;
21430;SDS011;10876;49.038;10.608;2023-08-06T19:53:43;1.83;;;0.57;;
21430;SDS011;10876;49.038;10.608;2023-08-06T19:57:10;1.10;;;0.68;;
21430;SDS011;10876;49.038;10.608;2023-08-06T20:00:41;0.50;;;0.50;;
21430;SDS011;10876;49.038;10.608;2023-08-06T20:04:08;0.75;;;0.50;;
21430;SDS011;10876;49.038;10.608;2023-08-06T20:07:38;1.23;;;0.75;;
21430;SDS011;10876;49.038;10.608;2023-08-06T20:11:04;1.00;;;0.90;;
21430;SDS011;10876;49.038;10.608;2023-08-06T20:14:33;1.20;;;0.82;;
21430;SDS011;10876;49.038;10.608;2023-08-06T20:18:06;1.75;;;0.82;;